sensor_id;sensor_type;location;lat;lon;timestamp;pressure;altitude;pressure_sealevel;temperature;humidity
76746;BME280;65671;49.976;20.038;2023-04-01T00:00:18;96280.81;;;9.54;66.80
76746;BME280;65671;49.976;20.038;2023-04-01T00:02:43;96275.38;;;9.41;66.58
76746;BME280;65671;49.976;20.038;2023-04-01T00:05:10;96264.03;;;9.46;66.32
76746;BME280;65671;49.976;20.038;2023-04-01T00:07:37;96273.16;;;9.52;66.88
76746;BME280;65671;49.976;20.038;2023-04-01T00:10:04;96277.72;;;9.39;67.43
76746;BME280;65671;49.976;20.038;2023-04-01T00:12:30;96275.69;;;9.43;67.26
76746;BME280;65671;49.976;20.038;2023-04-01T00:14:56;96273.16;;;9.52;66.91
76746;BME280;65671;49.976;20.038;2023-04-01T00:17:22;96266.13;;;9.55;66.41
76746;BME280;65671;49.976;20.038;2023-04-01T00:19:47;96261.88;;;9.41;67.23
76746;BME280;65671;49.976;20.038;2023-04-01T00:22:13;96260.50;;;9.49;67.13
76746;BME280;65671;49.976;20.038;2023-04-01T00:24:39;96255.69;;;9.41;67.50
76746;BME280;65671;49.976;20.038;2023-04-01T00:27:05;96266.34;;;9.32;67.42
76746;BME280;65671;49.976;20.038;2023-04-01T00:29:30;96250.31;;;9.25;68.61
76746;BME280;65671;49.976;20.038;2023-04-01T00:31:57;96255.31;;;9.10;68.92
76746;BME280;65671;49.976;20.038;2023-04-01T00:34:23;96257.84;;;9.17;68.10
76746;BME280;65671;49.976;20.038;2023-04-01T00:36:50;96241.66;;;9.17;68.59
76746;BME280;65671;49.976;20.038;2023-04-01T00:39:17;96246.19;;;9.04;69.41
76746;BME280;65671;49.976;20.038;2023-04-01T00:41:43;96243.66;;;9.13;68.72
76746;BME280;65671;49.976;20.038;2023-04-01T00:44:19;96230.09;;;9.01;69.08
76746;BME280;65671;49.976;20.038;2023-04-01T00:46:45;96236.31;;;9.14;69.14
76746;BME280;65671;49.976;20.038;2023-04-01T00:49:11;96238.25;;;9.13;69.07
76746;BME280;65671;49.976;20.038;2023-04-01T00:51:38;96235.91;;;8.99;69.44
76746;BME280;65671;49.976;20.038;2023-04-01T00:54:05;96240.03;;;9.04;69.80
76746;BME280;65671;49.976;20.038;2023-04-01T00:56:35;96236.25;;;9.01;70.33
76746;BME280;65671;49.976;20.038;2023-04-01T00:59:06;96233.63;;;9.14;70.10
76746;BME280;65671;49.976;20.038;2023-04-01T01:01:34;96237.19;;;9.11;70.01
76746;BME280;65671;49.976;20.038;2023-04-01T01:04:00;96234.91;;;9.09;69.75
76746;BME280;65671;49.976;20.038;2023-04-01T01:06:53;96243.09;;;9.06;69.55
76746;BME280;65671;49.976;20.038;2023-04-01T01:12:26;96243.25;;;8.98;70.73
76746;BME280;65671;49.976;20.038;2023-04-01T01:15:15;96253.44;;;9.07;70.71
76746;BME280;65671;49.976;20.038;2023-04-01T01:18:09;96252.88;;;9.00;70.34
76746;BME280;65671;49.976;20.038;2023-04-01T01:21:02;96248.91;;;9.04;70.36
76746;BME280;65671;49.976;20.038;2023-04-01T01:27:06;96261.56;;;9.23;70.16
76746;BME280;65671;49.976;20.038;2023-04-01T01:29:40;96258.31;;;9.28;69.69
76746;BME280;65671;49.976;20.038;2023-04-01T01:38:01;96259.50;;;9.27;70.51
76746;BME280;65671;49.976;20.038;2023-04-01T01:40:29;96257.56;;;9.28;69.61
76746;BME280;65671;49.976;20.038;2023-04-01T01:43:00;96251.84;;;9.26;70.42
76746;BME280;65671;49.976;20.038;2023-04-01T01:45:30;96259.88;;;9.13;70.52
76746;BME280;65671;49.976;20.038;2023-04-01T01:47:58;96263.56;;;9.19;70.35
76746;BME280;65671;49.976;20.038;2023-04-01T01:50:26;96270.41;;;9.24;70.00
76746;BME280;65671;49.976;20.038;2023-04-01T01:53:01;96266.78;;;9.14;70.25
76746;BME280;65671;49.976;20.038;2023-04-01T01:55:28;96268.28;;;9.15;70.66
76746;BME280;65671;49.976;20.038;2023-04-01T01:57:58;96270.91;;;9.19;70.30
76746;BME280;65671;49.976;20.038;2023-04-01T02:00:26;96274.84;;;9.30;69.74
76746;BME280;65671;49.976;20.038;2023-04-01T02:02:53;96271.16;;;9.24;69.93
76746;BME280;65671;49.976;20.038;2023-04-01T02:05:23;96273.34;;;9.29;69.49
76746;BME280;65671;49.976;20.038;2023-04-01T02:07:55;96282.38;;;9.23;70.70
76746;BME280;65671;49.976;20.038;2023-04-01T02:10:25;96278.75;;;9.29;70.32
76746;BME280;65671;49.976;20.038;2023-04-01T02:12:53;96278.94;;;9.22;69.99
76746;BME280;65671;49.976;20.038;2023-04-01T02:15:22;96276.31;;;9.19;69.87
76746;BME280;65671;49.976;20.038;2023-04-01T02:17:50;96271.94;;;9.09;70.71
76746;BME280;65671;49.976;20.038;2023-04-01T02:20:22;96273.56;;;9.06;71.09
76746;BME280;65671;49.976;20.038;2023-04-01T02:22:51;96284.06;;;9.01;71.03
76746;BME280;65671;49.976;20.038;2023-04-01T02:25:20;96285.28;;;9.00;71.68
76746;BME280;65671;49.976;20.038;2023-04-01T02:27:48;96285.75;;;8.94;71.75
76746;BME280;65671;49.976;20.038;2023-04-01T02:30:16;96284.84;;;9.01;70.10
76746;BME280;65671;49.976;20.038;2023-04-01T02:32:43;96285.84;;;9.07;69.94
76746;BME280;65671;49.976;20.038;2023-04-01T02:35:11;96287.03;;;8.90;71.68
76746;BME280;65671;49.976;20.038;2023-04-01T02:37:38;96286.34;;;8.86;71.08
76746;BME280;65671;49.976;20.038;2023-04-01T02:40:08;96287.47;;;8.88;71.44
76746;BME280;65671;49.976;20.038;2023-04-01T02:42:35;96285.34;;;8.80;71.72
76746;BME280;65671;49.976;20.038;2023-04-01T02:45:01;96283.91;;;8.75;71.34
76746;BME280;65671;49.976;20.038;2023-04-01T02:47:26;96292.25;;;8.81;71.68
76746;BME280;65671;49.976;20.038;2023-04-01T02:49:52;96294.81;;;8.88;71.54
76746;BME280;65671;49.976;20.038;2023-04-01T02:52:24;96294.88;;;8.84;71.00
76746;BME280;65671;49.976;20.038;2023-04-01T02:54:50;96299.38;;;8.91;71.73
76746;BME280;65671;49.976;20.038;2023-04-01T02:57:16;96303.56;;;8.92;71.34
76746;BME280;65671;49.976;20.038;2023-04-01T02:59:41;96302.38;;;8.93;71.34
76746;BME280;65671;49.976;20.038;2023-04-01T03:02:07;96297.56;;;9.01;70.75
76746;BME280;65671;49.976;20.038;2023-04-01T03:04:32;96298.59;;;8.90;72.56
76746;BME280;65671;49.976;20.038;2023-04-01T03:06:58;96299.09;;;8.85;71.88
76746;BME280;65671;49.976;20.038;2023-04-01T03:09:24;96290.25;;;8.85;71.86
76746;BME280;65671;49.976;20.038;2023-04-01T03:11:50;96297.66;;;8.65;72.84
76746;BME280;65671;49.976;20.038;2023-04-01T03:14:15;96293.75;;;8.66;72.95
76746;BME280;65671;49.976;20.038;2023-04-01T03:16:41;96289.06;;;8.70;72.85
76746;BME280;65671;49.976;20.038;2023-04-01T03:19:06;96295.09;;;8.58;72.99
76746;BME280;65671;49.976;20.038;2023-04-01T03:21:32;96295.88;;;8.58;73.01
76746;BME280;65671;49.976;20.038;2023-04-01T03:23:58;96289.13;;;8.50;74.00
76746;BME280;65671;49.976;20.038;2023-04-01T03:26:24;96286.50;;;8.47;74.40
76746;BME280;65671;49.976;20.038;2023-04-01T03:28:52;96291.38;;;8.52;74.47
76746;BME280;65671;49.976;20.038;2023-04-01T03:31:17;96298.38;;;8.65;73.83
76746;BME280;65671;49.976;20.038;2023-04-01T03:33:43;96289.75;;;8.74;73.33
76746;BME280;65671;49.976;20.038;2023-04-01T03:36:08;96299.84;;;8.70;73.44
76746;BME280;65671;49.976;20.038;2023-04-01T03:38:35;96293.09;;;8.78;72.24
76746;BME280;65671;49.976;20.038;2023-04-01T03:41:01;96301.53;;;8.80;73.00
76746;BME280;65671;49.976;20.038;2023-04-01T03:43:26;96298.41;;;8.81;73.01
76746;BME280;65671;49.976;20.038;2023-04-01T03:45:52;96291.41;;;8.68;73.60
76746;BME280;65671;49.976;20.038;2023-04-01T03:48:20;96289.44;;;8.68;73.87
76746;BME280;65671;49.976;20.038;2023-04-01T03:50:46;96293.19;;;8.74;73.26
76746;BME280;65671;49.976;20.038;2023-04-01T03:53:12;96298.16;;;8.76;73.46
76746;BME280;65671;49.976;20.038;2023-04-01T03:55:39;96303.75;;;8.85;72.90
76746;BME280;65671;49.976;20.038;2023-04-01T03:58:06;96299.38;;;8.91;73.08
76746;BME280;65671;49.976;20.038;2023-04-01T04:00:32;96304.91;;;8.84;73.32
76746;BME280;65671;49.976;20.038;2023-04-01T04:02:58;96304.59;;;8.82;73.75
76746;BME280;65671;49.976;20.038;2023-04-01T04:05:25;96304.41;;;8.73;73.74
76746;BME280;65671;49.976;20.038;2023-04-01T04:07:52;96306.44;;;8.85;73.43
76746;BME280;65671;49.976;20.038;2023-04-01T04:10:19;96314.09;;;8.86;72.84
76746;BME280;65671;49.976;20.038;2023-04-01T04:12:45;96310.31;;;8.84;73.48
76746;BME280;65671;49.976;20.038;2023-04-01T04:15:11;96313.84;;;8.81;74.15
76746;BME280;65671;49.976;20.038;2023-04-01T04:17:37;96316.88;;;8.83;73.51
76746;BME280;65671;49.976;20.038;2023-04-01T04:20:03;96324.25;;;8.82;74.19
76746;BME280;65671;49.976;20.038;2023-04-01T04:22:29;96322.47;;;8.92;74.08
76746;BME280;65671;49.976;20.038;2023-04-01T04:24:54;96322.81;;;8.94;73.86
76746;BME280;65671;49.976;20.038;2023-04-01T04:27:20;96322.72;;;8.97;73.13
76746;BME280;65671;49.976;20.038;2023-04-01T04:29:45;96327.38;;;8.97;73.67
76746;BME280;65671;49.976;20.038;2023-04-01T04:32:11;96330.06;;;8.97;73.93
76746;BME280;65671;49.976;20.038;2023-04-01T04:34:37;96323.66;;;8.91;73.91
76746;BME280;65671;49.976;20.038;2023-04-01T04:37:03;96314.47;;;8.88;73.77
76746;BME280;65671;49.976;20.038;2023-04-01T04:39:29;96307.34;;;8.94;73.46
76746;BME280;65671;49.976;20.038;2023-04-01T04:41:55;96314.34;;;8.92;73.63
76746;BME280;65671;49.976;20.038;2023-04-01T04:44:20;96314.28;;;8.95;73.89
76746;BME280;65671;49.976;20.038;2023-04-01T04:46:47;96319.09;;;8.88;74.00
76746;BME280;65671;49.976;20.038;2023-04-01T04:49:12;96316.06;;;9.02;72.90
76746;BME280;65671;49.976;20.038;2023-04-01T04:51:38;96307.78;;;8.93;73.31
76746;BME280;65671;49.976;20.038;2023-04-01T04:54:04;96319.28;;;8.97;73.60
76746;BME280;65671;49.976;20.038;2023-04-01T04:56:31;96317.31;;;8.97;74.01
76746;BME280;65671;49.976;20.038;2023-04-01T04:58:57;96320.63;;;9.05;73.41
76746;BME280;65671;49.976;20.038;2023-04-01T05:01:23;96323.84;;;9.00;73.40
76746;BME280;65671;49.976;20.038;2023-04-01T05:03:49;96324.66;;;9.13;73.41
76746;BME280;65671;49.976;20.038;2023-04-01T05:06:15;96321.31;;;9.09;73.33
76746;BME280;65671;49.976;20.038;2023-04-01T05:08:42;96326.84;;;9.18;72.93
76746;BME280;65671;49.976;20.038;2023-04-01T05:11:17;96328.63;;;9.09;73.26
76746;BME280;65671;49.976;20.038;2023-04-01T05:13:43;96320.19;;;9.23;72.24
76746;BME280;65671;49.976;20.038;2023-04-01T05:16:11;96327.97;;;9.21;73.26
76746;BME280;65671;49.976;20.038;2023-04-01T05:18:37;96327.97;;;9.21;73.16
76746;BME280;65671;49.976;20.038;2023-04-01T05:21:03;96314.88;;;9.19;72.26
76746;BME280;65671;49.976;20.038;2023-04-01T05:23:30;96323.84;;;9.32;73.01
76746;BME280;65671;49.976;20.038;2023-04-01T05:25:56;96327.19;;;9.36;72.71
76746;BME280;65671;49.976;20.038;2023-04-01T05:28:22;96331.06;;;9.19;73.26
76746;BME280;65671;49.976;20.038;2023-04-01T05:30:47;96331.66;;;9.43;72.36
76746;BME280;65671;49.976;20.038;2023-04-01T05:33:13;96335.53;;;9.42;72.51
76746;BME280;65671;49.976;20.038;2023-04-01T05:35:39;96336.97;;;9.46;72.40
76746;BME280;65671;49.976;20.038;2023-04-01T05:38:05;96334.88;;;9.38;75.23
76746;BME280;65671;49.976;20.038;2023-04-01T05:40:31;96339.03;;;9.26;75.84
76746;BME280;65671;49.976;20.038;2023-04-01T05:42:58;96328.72;;;9.05;77.34
76746;BME280;65671;49.976;20.038;2023-04-01T05:45:24;96322.97;;;9.19;76.64
76746;BME280;65671;49.976;20.038;2023-04-01T05:47:50;96327.88;;;9.24;77.72
76746;BME280;65671;49.976;20.038;2023-04-01T05:50:16;96324.91;;;9.19;77.14
76746;BME280;65671;49.976;20.038;2023-04-01T05:52:42;96327.94;;;9.53;75.75
76746;BME280;65671;49.976;20.038;2023-04-01T05:55:08;96321.22;;;9.74;75.55
76746;BME280;65671;49.976;20.038;2023-04-01T05:57:34;96328.06;;;9.78;75.84
76746;BME280;65671;49.976;20.038;2023-04-01T06:00:00;96323.97;;;9.58;75.35
76746;BME280;65671;49.976;20.038;2023-04-01T06:02:25;96315.84;;;9.86;74.85
76746;BME280;65671;49.976;20.038;2023-04-01T06:05:18;96323.56;;;9.88;74.30
76746;BME280;65671;49.976;20.038;2023-04-01T06:07:44;96323.75;;;10.09;73.20
76746;BME280;65671;49.976;20.038;2023-04-01T06:10:20;96324.19;;;10.49;72.15
76746;BME280;65671;49.976;20.038;2023-04-01T06:13:26;96322.38;;;10.72;71.99
76746;BME280;65671;49.976;20.038;2023-04-01T06:15:59;96326.97;;;10.33;71.87
76746;BME280;65671;49.976;20.038;2023-04-01T06:18:50;96323.63;;;10.42;70.30
76746;BME280;65671;49.976;20.038;2023-04-01T06:29:35;96328.56;;;10.31;71.07
76746;BME280;65671;49.976;20.038;2023-04-01T06:43:13;96333.13;;;10.21;71.65
76746;BME280;65671;49.976;20.038;2023-04-01T06:46:00;96339.22;;;10.38;71.25
76746;BME280;65671;49.976;20.038;2023-04-01T06:53:43;96340.88;;;10.60;69.82
76746;BME280;65671;49.976;20.038;2023-04-01T06:56:15;96341.09;;;10.53;70.25
76746;BME280;65671;49.976;20.038;2023-04-01T06:58:56;96332.88;;;10.70;69.38
76746;BME280;65671;49.976;20.038;2023-04-01T07:01:34;96334.38;;;10.71;69.44
76746;BME280;65671;49.976;20.038;2023-04-01T07:04:14;96332.22;;;10.91;69.82
76746;BME280;65671;49.976;20.038;2023-04-01T07:06:48;96329.63;;;10.87;69.66
76746;BME280;65671;49.976;20.038;2023-04-01T07:09:20;96331.13;;;10.76;69.84
76746;BME280;65671;49.976;20.038;2023-04-01T07:11:47;96327.44;;;10.70;70.38
76746;BME280;65671;49.976;20.038;2023-04-01T07:14:23;96321.28;;;10.56;71.13
76746;BME280;65671;49.976;20.038;2023-04-01T07:17:17;96333.41;;;10.64;70.18
76746;BME280;65671;49.976;20.038;2023-04-01T07:19:50;96332.88;;;10.70;70.12
76746;BME280;65671;49.976;20.038;2023-04-01T07:22:26;96322.25;;;10.88;70.41
76746;BME280;65671;49.976;20.038;2023-04-01T07:24:53;96330.72;;;11.15;69.19
76746;BME280;65671;49.976;20.038;2023-04-01T07:27:19;96333.22;;;11.09;69.87
76746;BME280;65671;49.976;20.038;2023-04-01T07:29:45;96331.69;;;11.08;68.45
76746;BME280;65671;49.976;20.038;2023-04-01T07:44:04;96333.72;;;11.30;68.53
76746;BME280;65671;49.976;20.038;2023-04-01T07:47:03;96332.38;;;11.59;66.64
76746;BME280;65671;49.976;20.038;2023-04-01T07:55:16;96337.22;;;11.77;66.11
76746;BME280;65671;49.976;20.038;2023-04-01T07:58:01;96342.34;;;11.62;65.10
76746;BME280;65671;49.976;20.038;2023-04-01T08:00:51;96345.91;;;11.59;66.58
76746;BME280;65671;49.976;20.038;2023-04-01T08:14:26;96344.25;;;11.15;65.02
76746;BME280;65671;49.976;20.038;2023-04-01T08:19:44;96349.44;;;11.22;65.34
76746;BME280;65671;49.976;20.038;2023-04-01T08:22:23;96349.22;;;11.42;64.63
76746;BME280;65671;49.976;20.038;2023-04-01T08:24:52;96343.31;;;11.56;65.44
76746;BME280;65671;49.976;20.038;2023-04-01T08:27:48;96348.09;;;11.52;63.88
76746;BME280;65671;49.976;20.038;2023-04-01T08:30:22;96347.19;;;12.02;63.63
76746;BME280;65671;49.976;20.038;2023-04-01T08:33:14;96353.75;;;11.92;63.91
76746;BME280;65671;49.976;20.038;2023-04-01T08:36:08;96351.16;;;11.88;62.98
76746;BME280;65671;49.976;20.038;2023-04-01T08:52:36;96335.72;;;12.63;62.12
76746;BME280;65671;49.976;20.038;2023-04-01T08:55:27;96336.78;;;12.65;61.23
76746;BME280;65671;49.976;20.038;2023-04-01T09:00:50;96333.19;;;12.68;62.12
76746;BME280;65671;49.976;20.038;2023-04-01T09:14:47;96333.59;;;12.36;60.71
76746;BME280;65671;49.976;20.038;2023-04-01T09:36:43;96342.53;;;12.02;63.70
76746;BME280;65671;49.976;20.038;2023-04-01T09:42:33;96339.41;;;12.04;61.30
76746;BME280;65671;49.976;20.038;2023-04-01T09:48:30;96342.34;;;11.97;63.37
76746;BME280;65671;49.976;20.038;2023-04-01T10:05:08;96359.69;;;11.78;63.13
76746;BME280;65671;49.976;20.038;2023-04-01T10:27:34;96365.75;;;11.56;64.12
76746;BME280;65671;49.976;20.038;2023-04-01T10:41:28;96385.31;;;11.51;65.80
76746;BME280;65671;49.976;20.038;2023-04-01T11:03:41;96387.66;;;11.74;64.77
76746;BME280;65671;49.976;20.038;2023-04-01T11:30:53;96376.44;;;13.15;63.22
76746;BME280;65671;49.976;20.038;2023-04-01T11:44:49;96370.13;;;12.44;59.20
76746;BME280;65671;49.976;20.038;2023-04-01T12:00:57;96367.78;;;12.77;60.93
76746;BME280;65671;49.976;20.038;2023-04-01T12:06:07;96383.25;;;12.24;61.25
76746;BME280;65671;49.976;20.038;2023-04-01T12:16:37;96384.94;;;11.62;68.14
76746;BME280;65671;49.976;20.038;2023-04-01T12:22:09;96388.94;;;12.17;64.40
76746;BME280;65671;49.976;20.038;2023-04-01T12:25:02;96389.00;;;12.69;64.25
76746;BME280;65671;49.976;20.038;2023-04-01T12:30:34;96374.72;;;13.49;59.40
76746;BME280;65671;49.976;20.038;2023-04-01T12:41:42;96395.88;;;12.18;63.11
76746;BME280;65671;49.976;20.038;2023-04-01T12:51:35;96387.25;;;12.84;61.69
76746;BME280;65671;49.976;20.038;2023-04-01T12:57:13;96402.13;;;12.93;61.47
76746;BME280;65671;49.976;20.038;2023-04-01T13:11:20;96397.47;;;12.50;63.60
76746;BME280;65671;49.976;20.038;2023-04-01T13:17:11;96414.19;;;11.92;67.92
76746;BME280;65671;49.976;20.038;2023-04-01T13:22:39;96423.41;;;11.95;69.52
76746;BME280;65671;49.976;20.038;2023-04-01T13:25:32;96419.47;;;11.96;71.73
76746;BME280;65671;49.976;20.038;2023-04-01T13:43:11;96433.91;;;11.93;70.86
76746;BME280;65671;49.976;20.038;2023-04-01T14:00:19;96460.38;;;11.13;70.92
76746;BME280;65671;49.976;20.038;2023-04-01T14:03:03;96455.75;;;11.01;71.75
76746;BME280;65671;49.976;20.038;2023-04-01T14:08:17;96441.44;;;11.38;73.54
76746;BME280;65671;49.976;20.038;2023-04-01T14:29:29;96434.06;;;11.64;71.74
76746;BME280;65671;49.976;20.038;2023-04-01T14:48:48;96442.75;;;11.59;72.16
76746;BME280;65671;49.976;20.038;2023-04-01T14:51:32;96448.81;;;11.38;73.18
76746;BME280;65671;49.976;20.038;2023-04-01T14:59:51;96442.13;;;11.42;72.56
76746;BME280;65671;49.976;20.038;2023-04-01T15:04:55;96445.22;;;11.28;72.35
76746;BME280;65671;49.976;20.038;2023-04-01T15:07:59;96454.66;;;11.24;72.88
76746;BME280;65671;49.976;20.038;2023-04-01T15:16:10;96449.81;;;11.18;73.86
76746;BME280;65671;49.976;20.038;2023-04-01T15:27:33;96457.81;;;11.22;73.10
76746;BME280;65671;49.976;20.038;2023-04-01T15:30:52;96466.81;;;11.32;73.21
76746;BME280;65671;49.976;20.038;2023-04-01T15:33:26;96466.91;;;11.28;74.01
76746;BME280;65671;49.976;20.038;2023-04-01T15:36:07;96467.44;;;11.23;72.79
76746;BME280;65671;49.976;20.038;2023-04-01T15:38:45;96474.06;;;11.22;73.73
76746;BME280;65671;49.976;20.038;2023-04-01T15:41:23;96481.53;;;11.18;73.88
76746;BME280;65671;49.976;20.038;2023-04-01T15:43:52;96485.84;;;11.03;72.92
76746;BME280;65671;49.976;20.038;2023-04-01T15:51:56;96496.50;;;10.69;75.67
76746;BME280;65671;49.976;20.038;2023-04-01T15:57:14;96502.78;;;10.78;76.09
76746;BME280;65671;49.976;20.038;2023-04-01T16:02:51;96509.53;;;10.57;78.55
76746;BME280;65671;49.976;20.038;2023-04-01T16:13:40;96513.31;;;10.31;80.05
76746;BME280;65671;49.976;20.038;2023-04-01T16:24:17;96518.72;;;10.31;80.13
76746;BME280;65671;49.976;20.038;2023-04-01T16:26:50;96530.38;;;10.28;79.82
76746;BME280;65671;49.976;20.038;2023-04-01T16:29:46;96530.91;;;10.23;81.11
76746;BME280;65671;49.976;20.038;2023-04-01T16:32:20;96536.63;;;10.09;81.30
76746;BME280;65671;49.976;20.038;2023-04-01T16:37:39;96549.47;;;10.05;82.70
76746;BME280;65671;49.976;20.038;2023-04-01T16:40:34;96550.63;;;10.04;83.66
76746;BME280;65671;49.976;20.038;2023-04-01T16:43:19;96552.00;;;9.96;83.69
76746;BME280;65671;49.976;20.038;2023-04-01T16:46:13;96553.84;;;9.99;83.68
76746;BME280;65671;49.976;20.038;2023-04-01T16:48:52;96556.91;;;9.85;84.40
76746;BME280;65671;49.976;20.038;2023-04-01T16:51:24;96556.56;;;9.83;84.28
76746;BME280;65671;49.976;20.038;2023-04-01T16:54:02;96561.59;;;9.81;84.48
76746;BME280;65671;49.976;20.038;2023-04-01T16:56:50;96559.88;;;9.54;84.84
76746;BME280;65671;49.976;20.038;2023-04-01T16:59:29;96557.50;;;9.57;83.56
76746;BME280;65671;49.976;20.038;2023-04-01T17:07:28;96574.06;;;9.23;84.60
76746;BME280;65671;49.976;20.038;2023-04-01T17:10:06;96575.66;;;9.20;83.48
76746;BME280;65671;49.976;20.038;2023-04-01T17:13:01;96575.78;;;9.13;84.59
76746;BME280;65671;49.976;20.038;2023-04-01T17:21:18;96598.88;;;8.94;84.88
76746;BME280;65671;49.976;20.038;2023-04-01T17:23:32;96603.25;;;8.88;85.05
76746;BME280;65671;49.976;20.038;2023-04-01T17:26:06;96602.63;;;8.81;84.98
76746;BME280;65671;49.976;20.038;2023-04-01T17:39:22;96614.19;;;8.81;85.30
76746;BME280;65671;49.976;20.038;2023-04-01T17:42:04;96613.41;;;8.81;85.14
76746;BME280;65671;49.976;20.038;2023-04-01T17:47:47;96619.84;;;8.87;83.13
76746;BME280;65671;49.976;20.038;2023-04-01T17:59:57;96628.66;;;8.91;83.38
76746;BME280;65671;49.976;20.038;2023-04-01T18:02:28;96634.84;;;8.91;83.09
76746;BME280;65671;49.976;20.038;2023-04-01T18:05:27;96639.53;;;8.87;83.77
76746;BME280;65671;49.976;20.038;2023-04-01T18:11:11;96643.03;;;8.84;83.81
76746;BME280;65671;49.976;20.038;2023-04-01T18:16:28;96648.00;;;9.09;83.05
76746;BME280;65671;49.976;20.038;2023-04-01T18:21:47;96647.41;;;8.98;84.05
76746;BME280;65671;49.976;20.038;2023-04-01T18:37:43;96667.88;;;8.76;85.50
76746;BME280;65671;49.976;20.038;2023-04-01T18:40:22;96677.06;;;8.78;85.34
76746;BME280;65671;49.976;20.038;2023-04-01T18:43:19;96672.16;;;8.73;85.17
76746;BME280;65671;49.976;20.038;2023-04-01T18:45:54;96673.38;;;8.69;85.61
76746;BME280;65671;49.976;20.038;2023-04-01T18:48:44;96676.34;;;8.74;85.64
76746;BME280;65671;49.976;20.038;2023-04-01T18:51:21;96674.03;;;8.76;85.23
76746;BME280;65671;49.976;20.038;2023-04-01T18:53:55;96682.53;;;8.75;85.29
76746;BME280;65671;49.976;20.038;2023-04-01T18:56:38;96680.94;;;8.77;85.32
76746;BME280;65671;49.976;20.038;2023-04-01T19:04:37;96680.31;;;8.70;85.79
76746;BME280;65671;49.976;20.038;2023-04-01T19:09:54;96695.72;;;8.69;85.98
76746;BME280;65671;49.976;20.038;2023-04-01T19:12:46;96697.72;;;8.65;86.12
76746;BME280;65671;49.976;20.038;2023-04-01T19:15:37;96698.75;;;8.71;85.76
76746;BME280;65671;49.976;20.038;2023-04-01T19:21:18;96702.81;;;8.60;86.61
76746;BME280;65671;49.976;20.038;2023-04-01T19:24:21;96709.28;;;8.66;86.53
76746;BME280;65671;49.976;20.038;2023-04-01T19:40:51;96739.41;;;8.61;88.34
76746;BME280;65671;49.976;20.038;2023-04-01T19:43:25;96739.25;;;8.45;89.37
76746;BME280;65671;49.976;20.038;2023-04-01T19:48:38;96736.81;;;8.54;88.98
76746;BME280;65671;49.976;20.038;2023-04-01T20:00:09;96753.38;;;8.56;88.45
76746;BME280;65671;49.976;20.038;2023-04-01T20:08:54;96760.84;;;8.45;88.82
76746;BME280;65671;49.976;20.038;2023-04-01T20:14:40;96767.25;;;8.54;89.79
76746;BME280;65671;49.976;20.038;2023-04-01T20:17:17;96768.88;;;8.48;89.84
76746;BME280;65671;49.976;20.038;2023-04-01T20:25:15;96776.47;;;8.57;89.98
76746;BME280;65671;49.976;20.038;2023-04-01T20:27:56;96776.78;;;8.62;89.68
76746;BME280;65671;49.976;20.038;2023-04-01T20:52:57;96786.31;;;8.44;91.50
76746;BME280;65671;49.976;20.038;2023-04-01T21:09:35;96798.44;;;8.25;92.75
76746;BME280;65671;49.976;20.038;2023-04-01T21:12:34;96798.44;;;8.25;92.34
76746;BME280;65671;49.976;20.038;2023-04-01T21:15:33;96800.38;;;8.24;92.73
76746;BME280;65671;49.976;20.038;2023-04-01T21:28:38;96822.75;;;8.21;92.83
76746;BME280;65671;49.976;20.038;2023-04-01T21:31:41;96826.19;;;8.25;93.11
76746;BME280;65671;49.976;20.038;2023-04-01T21:47:29;96828.16;;;8.21;92.52
76746;BME280;65671;49.976;20.038;2023-04-01T21:58:53;96837.66;;;8.33;92.04
76746;BME280;65671;49.976;20.038;2023-04-01T22:04:38;96835.84;;;8.23;92.59
76746;BME280;65671;49.976;20.038;2023-04-01T22:07:15;96832.34;;;8.29;92.37
76746;BME280;65671;49.976;20.038;2023-04-01T22:17:48;96839.66;;;8.25;92.84
76746;BME280;65671;49.976;20.038;2023-04-01T22:28:51;96841.91;;;8.34;92.11
76746;BME280;65671;49.976;20.038;2023-04-01T22:31:48;96857.31;;;8.33;92.00
76746;BME280;65671;49.976;20.038;2023-04-01T22:34:23;96847.22;;;8.41;91.99
76746;BME280;65671;49.976;20.038;2023-04-01T22:39:50;96854.44;;;8.48;91.19
76746;BME280;65671;49.976;20.038;2023-04-01T22:50:38;96858.81;;;8.38;91.41
76746;BME280;65671;49.976;20.038;2023-04-01T22:53:08;96862.19;;;8.46;91.25
76746;BME280;65671;49.976;20.038;2023-04-01T22:55:38;96855.44;;;8.30;92.46
76746;BME280;65671;49.976;20.038;2023-04-01T22:58:11;96858.53;;;8.29;92.86
76746;BME280;65671;49.976;20.038;2023-04-01T23:00:56;96867.19;;;8.47;91.26
76746;BME280;65671;49.976;20.038;2023-04-01T23:03:31;96867.03;;;8.58;91.22
76746;BME280;65671;49.976;20.038;2023-04-01T23:06:00;96876.09;;;8.44;91.40
76746;BME280;65671;49.976;20.038;2023-04-01T23:14:51;96867.88;;;8.51;91.02
76746;BME280;65671;49.976;20.038;2023-04-01T23:17:32;96869.16;;;8.43;91.51
76746;BME280;65671;49.976;20.038;2023-04-01T23:25:49;96876.94;;;8.37;92.48
76746;BME280;65671;49.976;20.038;2023-04-01T23:31:49;96888.22;;;8.29;92.15
76746;BME280;65671;49.976;20.038;2023-04-01T23:34:30;96880.31;;;8.41;91.32
76746;BME280;65671;49.976;20.038;2023-04-01T23:37:00;96884.69;;;8.32;92.23
76746;BME280;65671;49.976;20.038;2023-04-01T23:39:50;96881.13;;;8.38;92.08
76746;BME280;65671;49.976;20.038;2023-04-01T23:42:28;96885.91;;;8.27;91.61
76746;BME280;65671;49.976;20.038;2023-04-01T23:45:01;96885.31;;;8.47;91.28
76746;BME280;65671;49.976;20.038;2023-04-01T23:47:30;96891.22;;;8.34;91.52
76746;BME280;65671;49.976;20.038;2023-04-01T23:50:01;96893.47;;;8.39;92.01
76746;BME280;65671;49.976;20.038;2023-04-01T23:52:36;96890.59;;;8.20;92.85
76746;BME280;65671;49.976;20.038;2023-04-01T23:57:37;96897.28;;;8.42;91.57
